sensor_id;sensor_type;location;lat;lon;timestamp;P1;durP1;ratioP1;P2;durP2;ratioP2
14187;SDS011;7175;51.978;5.330;2023-11-21T00:00:07;111.83;;;103.53;;
14187;SDS011;7175;51.978;5.330;2023-11-21T00:02:38;112.03;;;103.87;;
14187;SDS011;7175;51.978;5.330;2023-11-21T00:05:09;115.33;;;106.93;;
14187;SDS011;7175;51.978;5.330;2023-11-21T00:07:38;111.47;;;103.07;;
14187;SDS011;7175;51.978;5.330;2023-11-21T00:10:07;109.50;;;101.20;;
14187;SDS011;7175;51.978;5.330;2023-11-21T00:12:37;113.70;;;105.20;;
14187;SDS011;7175;51.978;5.330;2023-11-21T00:15:08;112.00;;;103.60;;
14187;SDS011;7175;51.978;5.330;2023-11-21T00:17:38;115.70;;;107.20;;
14187;SDS011;7175;51.978;5.330;2023-11-21T00:20:07;118.33;;;109.73;;
14187;SDS011;7175;51.978;5.330;2023-11-21T00:22:40;116.40;;;107.83;;
14187;SDS011;7175;51.978;5.330;2023-11-21T00:25:09;112.77;;;103.97;;
14187;SDS011;7175;51.978;5.330;2023-11-21T00:27:38;115.40;;;106.50;;
14187;SDS011;7175;51.978;5.330;2023-11-21T00:30:06;118.10;;;109.27;;
14187;SDS011;7175;51.978;5.330;2023-11-21T00:32:35;116.93;;;108.23;;
14187;SDS011;7175;51.978;5.330;2023-11-21T00:35:04;114.70;;;106.00;;
14187;SDS011;7175;51.978;5.330;2023-11-21T00:37:34;114.27;;;105.67;;
14187;SDS011;7175;51.978;5.330;2023-11-21T00:40:03;120.13;;;111.23;;
14187;SDS011;7175;51.978;5.330;2023-11-21T00:42:32;111.83;;;103.10;;
14187;SDS011;7175;51.978;5.330;2023-11-21T00:45:01;117.80;;;109.10;;
14187;SDS011;7175;51.978;5.330;2023-11-21T00:47:29;114.67;;;106.17;;
14187;SDS011;7175;51.978;5.330;2023-11-21T00:49:58;117.97;;;109.17;;
14187;SDS011;7175;51.978;5.330;2023-11-21T00:52:26;117.87;;;109.47;;
14187;SDS011;7175;51.978;5.330;2023-11-21T00:54:55;115.70;;;107.30;;
14187;SDS011;7175;51.978;5.330;2023-11-21T00:57:26;115.10;;;106.50;;
14187;SDS011;7175;51.978;5.330;2023-11-21T00:59:54;116.57;;;107.97;;
14187;SDS011;7175;51.978;5.330;2023-11-21T01:02:22;118.00;;;109.40;;
14187;SDS011;7175;51.978;5.330;2023-11-21T01:04:51;118.43;;;109.67;;
14187;SDS011;7175;51.978;5.330;2023-11-21T01:07:20;122.37;;;113.47;;
14187;SDS011;7175;51.978;5.330;2023-11-21T01:09:48;120.70;;;111.80;;
14187;SDS011;7175;51.978;5.330;2023-11-21T01:12:18;117.13;;;108.43;;
14187;SDS011;7175;51.978;5.330;2023-11-21T01:14:46;116.33;;;107.63;;
14187;SDS011;7175;51.978;5.330;2023-11-21T01:17:15;116.10;;;107.53;;
14187;SDS011;7175;51.978;5.330;2023-11-21T01:19:44;116.10;;;107.60;;
14187;SDS011;7175;51.978;5.330;2023-11-21T01:22:13;116.47;;;107.87;;
14187;SDS011;7175;51.978;5.330;2023-11-21T01:24:42;118.83;;;110.13;;
14187;SDS011;7175;51.978;5.330;2023-11-21T01:27:11;120.97;;;111.97;;
14187;SDS011;7175;51.978;5.330;2023-11-21T01:29:40;125.30;;;116.10;;
14187;SDS011;7175;51.978;5.330;2023-11-21T01:32:08;125.53;;;116.43;;
14187;SDS011;7175;51.978;5.330;2023-11-21T01:34:37;122.07;;;113.17;;
14187;SDS011;7175;51.978;5.330;2023-11-21T01:37:05;121.20;;;112.20;;
14187;SDS011;7175;51.978;5.330;2023-11-21T01:39:33;120.77;;;111.90;;
14187;SDS011;7175;51.978;5.330;2023-11-21T01:42:01;123.40;;;114.30;;
14187;SDS011;7175;51.978;5.330;2023-11-21T01:44:30;120.97;;;112.07;;
14187;SDS011;7175;51.978;5.330;2023-11-21T01:46:59;119.63;;;110.73;;
14187;SDS011;7175;51.978;5.330;2023-11-21T01:49:31;118.67;;;109.67;;
14187;SDS011;7175;51.978;5.330;2023-11-21T01:52:00;119.63;;;110.53;;
14187;SDS011;7175;51.978;5.330;2023-11-21T01:54:28;123.73;;;114.63;;
14187;SDS011;7175;51.978;5.330;2023-11-21T01:56:57;122.50;;;113.40;;
14187;SDS011;7175;51.978;5.330;2023-11-21T01:59:29;124.53;;;115.43;;
14187;SDS011;7175;51.978;5.330;2023-11-21T02:02:05;117.77;;;109.07;;
14187;SDS011;7175;51.978;5.330;2023-11-21T02:04:34;117.07;;;108.37;;
14187;SDS011;7175;51.978;5.330;2023-11-21T02:07:03;116.57;;;107.67;;
14187;SDS011;7175;51.978;5.330;2023-11-21T02:09:32;116.87;;;108.07;;
14187;SDS011;7175;51.978;5.330;2023-11-21T02:12:00;113.73;;;105.03;;
14187;SDS011;7175;51.978;5.330;2023-11-21T02:14:29;117.50;;;108.60;;
14187;SDS011;7175;51.978;5.330;2023-11-21T02:16:57;116.20;;;107.40;;
14187;SDS011;7175;51.978;5.330;2023-11-21T02:19:28;121.37;;;112.27;;
14187;SDS011;7175;51.978;5.330;2023-11-21T02:21:59;121.73;;;112.63;;
14187;SDS011;7175;51.978;5.330;2023-11-21T02:24:32;120.23;;;111.17;;
14187;SDS011;7175;51.978;5.330;2023-11-21T02:27:00;120.00;;;110.80;;
14187;SDS011;7175;51.978;5.330;2023-11-21T02:29:29;117.70;;;108.60;;
14187;SDS011;7175;51.978;5.330;2023-11-21T02:31:57;115.70;;;106.80;;
14187;SDS011;7175;51.978;5.330;2023-11-21T02:34:26;123.53;;;114.20;;
14187;SDS011;7175;51.978;5.330;2023-11-21T02:36:56;119.87;;;110.57;;
14187;SDS011;7175;51.978;5.330;2023-11-21T02:39:24;120.93;;;111.63;;
14187;SDS011;7175;51.978;5.330;2023-11-21T02:41:54;114.03;;;104.97;;
14187;SDS011;7175;51.978;5.330;2023-11-21T02:44:22;120.30;;;111.17;;
14187;SDS011;7175;51.978;5.330;2023-11-21T02:46:50;120.43;;;111.13;;
14187;SDS011;7175;51.978;5.330;2023-11-21T02:49:18;120.77;;;111.57;;
14187;SDS011;7175;51.978;5.330;2023-11-21T02:51:47;119.47;;;110.30;;
14187;SDS011;7175;51.978;5.330;2023-11-21T02:54:15;123.00;;;113.80;;
14187;SDS011;7175;51.978;5.330;2023-11-21T02:56:45;123.53;;;114.13;;
14187;SDS011;7175;51.978;5.330;2023-11-21T02:59:15;119.80;;;110.60;;
14187;SDS011;7175;51.978;5.330;2023-11-21T03:01:43;118.60;;;109.50;;
14187;SDS011;7175;51.978;5.330;2023-11-21T03:04:11;116.13;;;107.33;;
14187;SDS011;7175;51.978;5.330;2023-11-21T03:06:44;116.47;;;107.47;;
14187;SDS011;7175;51.978;5.330;2023-11-21T03:09:11;120.57;;;111.07;;
14187;SDS011;7175;51.978;5.330;2023-11-21T03:11:40;123.50;;;113.90;;
14187;SDS011;7175;51.978;5.330;2023-11-21T03:14:08;122.33;;;112.83;;
14187;SDS011;7175;51.978;5.330;2023-11-21T03:16:38;118.53;;;109.13;;
14187;SDS011;7175;51.978;5.330;2023-11-21T03:19:07;118.17;;;108.97;;
14187;SDS011;7175;51.978;5.330;2023-11-21T03:21:35;123.53;;;114.03;;
14187;SDS011;7175;51.978;5.330;2023-11-21T03:24:04;124.00;;;114.50;;
14187;SDS011;7175;51.978;5.330;2023-11-21T03:26:33;124.57;;;114.97;;
14187;SDS011;7175;51.978;5.330;2023-11-21T03:29:01;121.80;;;112.43;;
14187;SDS011;7175;51.978;5.330;2023-11-21T03:31:31;123.97;;;114.47;;
14187;SDS011;7175;51.978;5.330;2023-11-21T03:34:01;122.93;;;113.60;;
14187;SDS011;7175;51.978;5.330;2023-11-21T03:36:29;122.30;;;113.00;;
14187;SDS011;7175;51.978;5.330;2023-11-21T03:38:57;124.83;;;115.43;;
14187;SDS011;7175;51.978;5.330;2023-11-21T03:41:25;120.80;;;111.60;;
14187;SDS011;7175;51.978;5.330;2023-11-21T03:43:54;121.90;;;112.77;;
14187;SDS011;7175;51.978;5.330;2023-11-21T03:46:22;122.77;;;113.57;;
14187;SDS011;7175;51.978;5.330;2023-11-21T03:48:50;120.43;;;111.53;;
14187;SDS011;7175;51.978;5.330;2023-11-21T03:51:20;117.60;;;108.80;;
14187;SDS011;7175;51.978;5.330;2023-11-21T03:53:48;116.87;;;108.07;;
14187;SDS011;7175;51.978;5.330;2023-11-21T03:56:17;120.60;;;111.63;;
14187;SDS011;7175;51.978;5.330;2023-11-21T03:58:45;117.20;;;108.53;;
14187;SDS011;7175;51.978;5.330;2023-11-21T04:01:18;119.83;;;111.03;;
14187;SDS011;7175;51.978;5.330;2023-11-21T04:03:48;119.87;;;111.17;;
14187;SDS011;7175;51.978;5.330;2023-11-21T04:06:16;120.13;;;111.33;;
14187;SDS011;7175;51.978;5.330;2023-11-21T04:08:46;120.60;;;111.80;;
14187;SDS011;7175;51.978;5.330;2023-11-21T04:11:14;114.73;;;106.23;;
14187;SDS011;7175;51.978;5.330;2023-11-21T04:13:42;116.83;;;108.13;;
14187;SDS011;7175;51.978;5.330;2023-11-21T04:16:10;116.40;;;107.70;;
14187;SDS011;7175;51.978;5.330;2023-11-21T04:18:39;118.57;;;109.90;;
14187;SDS011;7175;51.978;5.330;2023-11-21T04:21:07;115.87;;;107.37;;
14187;SDS011;7175;51.978;5.330;2023-11-21T04:23:36;114.57;;;106.10;;
14187;SDS011;7175;51.978;5.330;2023-11-21T04:26:05;116.30;;;107.50;;
14187;SDS011;7175;51.978;5.330;2023-11-21T04:28:33;115.50;;;106.90;;
14187;SDS011;7175;51.978;5.330;2023-11-21T04:31:02;117.17;;;108.37;;
14187;SDS011;7175;51.978;5.330;2023-11-21T04:33:30;111.43;;;102.83;;
14187;SDS011;7175;51.978;5.330;2023-11-21T04:35:58;112.47;;;103.87;;
14187;SDS011;7175;51.978;5.330;2023-11-21T04:38:26;113.60;;;104.90;;
14187;SDS011;7175;51.978;5.330;2023-11-21T04:40:54;112.50;;;103.80;;
14187;SDS011;7175;51.978;5.330;2023-11-21T04:43:26;108.73;;;100.03;;
14187;SDS011;7175;51.978;5.330;2023-11-21T04:45:54;108.33;;;99.83;;
14187;SDS011;7175;51.978;5.330;2023-11-21T04:48:24;102.50;;;94.00;;
14187;SDS011;7175;51.978;5.330;2023-11-21T04:50:55;104.40;;;95.87;;
14187;SDS011;7175;51.978;5.330;2023-11-21T04:53:23;106.60;;;98.27;;
14187;SDS011;7175;51.978;5.330;2023-11-21T04:55:51;109.10;;;100.60;;
14187;SDS011;7175;51.978;5.330;2023-11-21T04:58:19;109.80;;;101.00;;
14187;SDS011;7175;51.978;5.330;2023-11-21T05:00:49;102.90;;;94.47;;
14187;SDS011;7175;51.978;5.330;2023-11-21T05:03:17;97.80;;;89.40;;
14187;SDS011;7175;51.978;5.330;2023-11-21T05:05:45;99.37;;;91.03;;
14187;SDS011;7175;51.978;5.330;2023-11-21T05:08:14;98.00;;;89.50;;
14187;SDS011;7175;51.978;5.330;2023-11-21T05:10:42;102.20;;;93.70;;
14187;SDS011;7175;51.978;5.330;2023-11-21T05:13:10;100.47;;;92.37;;
14187;SDS011;7175;51.978;5.330;2023-11-21T05:15:38;100.30;;;92.20;;
14187;SDS011;7175;51.978;5.330;2023-11-21T05:18:08;99.07;;;90.87;;
14187;SDS011;7175;51.978;5.330;2023-11-21T05:20:37;102.13;;;94.03;;
14187;SDS011;7175;51.978;5.330;2023-11-21T05:23:06;102.33;;;94.07;;
14187;SDS011;7175;51.978;5.330;2023-11-21T05:25:34;103.10;;;94.90;;
14187;SDS011;7175;51.978;5.330;2023-11-21T05:28:06;105.00;;;96.70;;
14187;SDS011;7175;51.978;5.330;2023-11-21T05:30:34;106.20;;;97.77;;
14187;SDS011;7175;51.978;5.330;2023-11-21T05:33:02;110.37;;;101.60;;
14187;SDS011;7175;51.978;5.330;2023-11-21T05:35:32;100.47;;;92.43;;
14187;SDS011;7175;51.978;5.330;2023-11-21T05:38:00;101.80;;;93.50;;
14187;SDS011;7175;51.978;5.330;2023-11-21T05:40:28;99.87;;;91.77;;
14187;SDS011;7175;51.978;5.330;2023-11-21T05:42:57;102.57;;;94.37;;
14187;SDS011;7175;51.978;5.330;2023-11-21T05:45:25;102.07;;;94.07;;
14187;SDS011;7175;51.978;5.330;2023-11-21T05:47:55;103.00;;;94.90;;
14187;SDS011;7175;51.978;5.330;2023-11-21T05:50:23;100.83;;;92.90;;
14187;SDS011;7175;51.978;5.330;2023-11-21T05:52:53;107.00;;;98.70;;
14187;SDS011;7175;51.978;5.330;2023-11-21T05:55:22;109.70;;;101.20;;
14187;SDS011;7175;51.978;5.330;2023-11-21T05:57:52;105.70;;;97.30;;
14187;SDS011;7175;51.978;5.330;2023-11-21T06:00:21;110.90;;;102.30;;
14187;SDS011;7175;51.978;5.330;2023-11-21T06:02:51;105.30;;;97.00;;
14187;SDS011;7175;51.978;5.330;2023-11-21T06:05:22;115.40;;;106.70;;
14187;SDS011;7175;51.978;5.330;2023-11-21T06:07:54;105.33;;;97.23;;
14187;SDS011;7175;51.978;5.330;2023-11-21T06:10:25;100.10;;;92.20;;
14187;SDS011;7175;51.978;5.330;2023-11-21T06:12:55;102.20;;;94.20;;
14187;SDS011;7175;51.978;5.330;2023-11-21T06:15:28;101.93;;;93.77;;
14187;SDS011;7175;51.978;5.330;2023-11-21T06:17:57;95.50;;;87.60;;
14187;SDS011;7175;51.978;5.330;2023-11-21T06:20:26;101.57;;;93.57;;
14187;SDS011;7175;51.978;5.330;2023-11-21T06:22:55;100.90;;;92.90;;
14187;SDS011;7175;51.978;5.330;2023-11-21T06:25:23;104.97;;;96.77;;
14187;SDS011;7175;51.978;5.330;2023-11-21T06:27:52;105.27;;;96.93;;
14187;SDS011;7175;51.978;5.330;2023-11-21T06:30:20;106.67;;;98.17;;
14187;SDS011;7175;51.978;5.330;2023-11-21T06:32:50;104.73;;;96.33;;
14187;SDS011;7175;51.978;5.330;2023-11-21T06:35:19;105.07;;;96.60;;
14187;SDS011;7175;51.978;5.330;2023-11-21T06:37:47;102.63;;;94.30;;
14187;SDS011;7175;51.978;5.330;2023-11-21T06:40:18;104.00;;;95.67;;
14187;SDS011;7175;51.978;5.330;2023-11-21T06:42:47;105.83;;;97.50;;
14187;SDS011;7175;51.978;5.330;2023-11-21T06:45:20;110.32;;;101.53;;
14187;SDS011;7175;51.978;5.330;2023-11-21T06:47:49;104.93;;;96.50;;
14187;SDS011;7175;51.978;5.330;2023-11-21T06:50:18;104.60;;;96.37;;
14187;SDS011;7175;51.978;5.330;2023-11-21T06:52:47;102.20;;;94.10;;
14187;SDS011;7175;51.978;5.330;2023-11-21T06:55:18;105.70;;;97.50;;
14187;SDS011;7175;51.978;5.330;2023-11-21T06:57:46;103.90;;;95.70;;
14187;SDS011;7175;51.978;5.330;2023-11-21T07:00:15;108.00;;;99.50;;
14187;SDS011;7175;51.978;5.330;2023-11-21T07:02:45;110.47;;;101.87;;
14187;SDS011;7175;51.978;5.330;2023-11-21T07:05:14;102.23;;;94.20;;
14187;SDS011;7175;51.978;5.330;2023-11-21T07:07:47;122.23;;;112.53;;
14187;SDS011;7175;51.978;5.330;2023-11-21T07:10:17;119.07;;;109.27;;
14187;SDS011;7175;51.978;5.330;2023-11-21T07:12:46;119.53;;;109.63;;
14187;SDS011;7175;51.978;5.330;2023-11-21T07:15:16;117.53;;;107.93;;
14187;SDS011;7175;51.978;5.330;2023-11-21T07:17:46;126.97;;;116.53;;
14187;SDS011;7175;51.978;5.330;2023-11-21T07:20:15;120.13;;;109.03;;
14187;SDS011;7175;51.978;5.330;2023-11-21T07:22:44;120.60;;;109.60;;
14187;SDS011;7175;51.978;5.330;2023-11-21T07:25:13;119.90;;;109.00;;
14187;SDS011;7175;51.978;5.330;2023-11-21T07:27:43;114.97;;;104.37;;
14187;SDS011;7175;51.978;5.330;2023-11-21T07:30:12;118.33;;;107.13;;
14187;SDS011;7175;51.978;5.330;2023-11-21T07:32:43;118.70;;;107.50;;
14187;SDS011;7175;51.978;5.330;2023-11-21T07:35:14;120.00;;;108.87;;
14187;SDS011;7175;51.978;5.330;2023-11-21T07:37:45;121.00;;;109.63;;
14187;SDS011;7175;51.978;5.330;2023-11-21T07:40:15;127.60;;;116.17;;
14187;SDS011;7175;51.978;5.330;2023-11-21T07:42:45;121.87;;;110.87;;
14187;SDS011;7175;51.978;5.330;2023-11-21T07:45:13;121.87;;;110.70;;
14187;SDS011;7175;51.978;5.330;2023-11-21T07:47:43;126.03;;;114.93;;
14187;SDS011;7175;51.978;5.330;2023-11-21T07:50:11;124.43;;;113.23;;
14187;SDS011;7175;51.978;5.330;2023-11-21T07:52:40;123.93;;;113.03;;
14187;SDS011;7175;51.978;5.330;2023-11-21T07:55:08;120.00;;;109.20;;
14187;SDS011;7175;51.978;5.330;2023-11-21T07:57:36;123.40;;;112.40;;
14187;SDS011;7175;51.978;5.330;2023-11-21T08:00:06;123.33;;;112.30;;
14187;SDS011;7175;51.978;5.330;2023-11-21T08:02:38;125.90;;;114.73;;
14187;SDS011;7175;51.978;5.330;2023-11-21T08:05:09;128.40;;;117.00;;
14187;SDS011;7175;51.978;5.330;2023-11-21T08:07:49;127.83;;;116.67;;
14187;SDS011;7175;51.978;5.330;2023-11-21T08:10:17;129.73;;;118.47;;
14187;SDS011;7175;51.978;5.330;2023-11-21T08:12:47;128.80;;;117.43;;
14187;SDS011;7175;51.978;5.330;2023-11-21T08:15:18;129.70;;;118.37;;
14187;SDS011;7175;51.978;5.330;2023-11-21T08:17:46;128.07;;;116.73;;
14187;SDS011;7175;51.978;5.330;2023-11-21T08:20:14;125.33;;;113.93;;
14187;SDS011;7175;51.978;5.330;2023-11-21T08:22:44;128.33;;;117.03;;
14187;SDS011;7175;51.978;5.330;2023-11-21T08:25:14;126.50;;;114.97;;
14187;SDS011;7175;51.978;5.330;2023-11-21T08:27:43;131.60;;;119.80;;
14187;SDS011;7175;51.978;5.330;2023-11-21T08:30:11;128.93;;;117.67;;
14187;SDS011;7175;51.978;5.330;2023-11-21T08:32:42;129.40;;;118.00;;
14187;SDS011;7175;51.978;5.330;2023-11-21T08:35:10;129.33;;;117.50;;
14187;SDS011;7175;51.978;5.330;2023-11-21T08:37:39;132.17;;;120.77;;
14187;SDS011;7175;51.978;5.330;2023-11-21T08:40:07;137.53;;;125.73;;
14187;SDS011;7175;51.978;5.330;2023-11-21T08:42:38;138.13;;;126.20;;
14187;SDS011;7175;51.978;5.330;2023-11-21T08:45:07;128.37;;;116.97;;
14187;SDS011;7175;51.978;5.330;2023-11-21T08:47:35;126.40;;;115.10;;
14187;SDS011;7175;51.978;5.330;2023-11-21T08:50:05;143.37;;;131.30;;
14187;SDS011;7175;51.978;5.330;2023-11-21T08:52:35;134.33;;;122.67;;
14187;SDS011;7175;51.978;5.330;2023-11-21T08:55:03;136.97;;;125.07;;
14187;SDS011;7175;51.978;5.330;2023-11-21T08:57:34;131.27;;;119.57;;
14187;SDS011;7175;51.978;5.330;2023-11-21T09:00:02;131.83;;;120.10;;
14187;SDS011;7175;51.978;5.330;2023-11-21T09:02:34;132.90;;;121.40;;
14187;SDS011;7175;51.978;5.330;2023-11-21T09:05:05;136.47;;;124.67;;
14187;SDS011;7175;51.978;5.330;2023-11-21T09:07:35;134.77;;;123.13;;
14187;SDS011;7175;51.978;5.330;2023-11-21T09:10:04;136.73;;;124.73;;
14187;SDS011;7175;51.978;5.330;2023-11-21T09:12:38;122.97;;;111.10;;
14187;SDS011;7175;51.978;5.330;2023-11-21T09:15:08;123.97;;;112.17;;
14187;SDS011;7175;51.978;5.330;2023-11-21T09:17:38;124.37;;;112.83;;
14187;SDS011;7175;51.978;5.330;2023-11-21T09:20:09;126.70;;;115.47;;
14187;SDS011;7175;51.978;5.330;2023-11-21T09:22:38;134.53;;;122.83;;
14187;SDS011;7175;51.978;5.330;2023-11-21T09:25:07;133.30;;;121.00;;
14187;SDS011;7175;51.978;5.330;2023-11-21T09:27:36;143.10;;;129.97;;
14187;SDS011;7175;51.978;5.330;2023-11-21T09:30:04;132.37;;;119.47;;
14187;SDS011;7175;51.978;5.330;2023-11-21T09:32:36;128.60;;;116.00;;
14187;SDS011;7175;51.978;5.330;2023-11-21T09:35:09;136.20;;;122.93;;
14187;SDS011;7175;51.978;5.330;2023-11-21T09:37:38;141.50;;;128.30;;
14187;SDS011;7175;51.978;5.330;2023-11-21T09:40:07;135.90;;;122.90;;
14187;SDS011;7175;51.978;5.330;2023-11-21T09:42:40;131.23;;;118.30;;
14187;SDS011;7175;51.978;5.330;2023-11-21T09:45:17;126.63;;;114.33;;
14187;SDS011;7175;51.978;5.330;2023-11-21T09:47:52;120.00;;;108.50;;
14187;SDS011;7175;51.978;5.330;2023-11-21T09:50:24;115.87;;;104.77;;
14187;SDS011;7175;51.978;5.330;2023-11-21T09:52:57;119.73;;;108.63;;
14187;SDS011;7175;51.978;5.330;2023-11-21T09:55:34;121.47;;;110.63;;
14187;SDS011;7175;51.978;5.330;2023-11-21T09:58:03;114.90;;;104.10;;
14187;SDS011;7175;51.978;5.330;2023-11-21T10:00:34;117.10;;;106.00;;
14187;SDS011;7175;51.978;5.330;2023-11-21T10:03:02;116.47;;;105.67;;
14187;SDS011;7175;51.978;5.330;2023-11-21T10:05:32;111.67;;;101.47;;
14187;SDS011;7175;51.978;5.330;2023-11-21T10:08:01;107.43;;;97.80;;
14187;SDS011;7175;51.978;5.330;2023-11-21T10:10:32;108.73;;;98.97;;
14187;SDS011;7175;51.978;5.330;2023-11-21T10:13:01;108.00;;;98.50;;
14187;SDS011;7175;51.978;5.330;2023-11-21T10:15:33;103.37;;;94.10;;
14187;SDS011;7175;51.978;5.330;2023-11-21T10:18:02;103.60;;;94.50;;
14187;SDS011;7175;51.978;5.330;2023-11-21T10:20:34;102.90;;;93.90;;
14187;SDS011;7175;51.978;5.330;2023-11-21T10:23:04;101.53;;;92.83;;
14187;SDS011;7175;51.978;5.330;2023-11-21T10:25:34;98.67;;;90.47;;
14187;SDS011;7175;51.978;5.330;2023-11-21T10:28:03;103.80;;;95.20;;
14187;SDS011;7175;51.978;5.330;2023-11-21T10:30:33;104.90;;;95.80;;
14187;SDS011;7175;51.978;5.330;2023-11-21T10:33:03;108.07;;;98.93;;
14187;SDS011;7175;51.978;5.330;2023-11-21T10:38:18;108.77;;;99.47;;
14187;SDS011;7175;51.978;5.330;2023-11-21T10:40:47;105.53;;;96.33;;
14187;SDS011;7175;51.978;5.330;2023-11-21T10:43:16;104.27;;;94.93;;
14187;SDS011;7175;51.978;5.330;2023-11-21T10:45:45;103.17;;;94.17;;
14187;SDS011;7175;51.978;5.330;2023-11-21T10:48:14;107.17;;;98.07;;
14187;SDS011;7175;51.978;5.330;2023-11-21T10:50:43;108.07;;;99.07;;
14187;SDS011;7175;51.978;5.330;2023-11-21T10:53:14;115.30;;;106.20;;
14187;SDS011;7175;51.978;5.330;2023-11-21T10:55:44;109.63;;;100.60;;
14187;SDS011;7175;51.978;5.330;2023-11-21T10:58:13;106.43;;;97.63;;
14187;SDS011;7175;51.978;5.330;2023-11-21T11:00:41;106.23;;;97.33;;
14187;SDS011;7175;51.978;5.330;2023-11-21T11:03:12;110.50;;;101.53;;
14187;SDS011;7175;51.978;5.330;2023-11-21T11:05:43;106.33;;;97.73;;
14187;SDS011;7175;51.978;5.330;2023-11-21T11:08:21;102.23;;;93.90;;
14187;SDS011;7175;51.978;5.330;2023-11-21T11:10:54;100.60;;;92.40;;
14187;SDS011;7175;51.978;5.330;2023-11-21T11:13:23;103.20;;;94.97;;
14187;SDS011;7175;51.978;5.330;2023-11-21T11:15:53;105.17;;;96.47;;
14187;SDS011;7175;51.978;5.330;2023-11-21T11:18:28;106.73;;;97.83;;
14187;SDS011;7175;51.978;5.330;2023-11-21T11:20:58;102.17;;;93.87;;
14187;SDS011;7175;51.978;5.330;2023-11-21T11:23:40;91.83;;;84.53;;
14187;SDS011;7175;51.978;5.330;2023-11-21T11:26:20;91.37;;;84.37;;
14187;SDS011;7175;51.978;5.330;2023-11-21T11:29:01;92.23;;;85.17;;
14187;SDS011;7175;51.978;5.330;2023-11-21T11:31:37;87.10;;;80.40;;
14187;SDS011;7175;51.978;5.330;2023-11-21T11:34:17;83.03;;;76.60;;
14187;SDS011;7175;51.978;5.330;2023-11-21T11:36:53;85.50;;;78.90;;
14187;SDS011;7175;51.978;5.330;2023-11-21T11:39:36;85.60;;;79.10;;
14187;SDS011;7175;51.978;5.330;2023-11-21T11:42:12;82.83;;;76.53;;
14187;SDS011;7175;51.978;5.330;2023-11-21T11:44:48;80.97;;;74.77;;
14187;SDS011;7175;51.978;5.330;2023-11-21T11:47:23;84.40;;;78.00;;
14187;SDS011;7175;51.978;5.330;2023-11-21T11:50:02;78.27;;;72.27;;
14187;SDS011;7175;51.978;5.330;2023-11-21T11:52:37;85.57;;;79.17;;
14187;SDS011;7175;51.978;5.330;2023-11-21T11:55:09;80.60;;;74.50;;
14187;SDS011;7175;51.978;5.330;2023-11-21T11:57:41;79.03;;;73.03;;
14187;SDS011;7175;51.978;5.330;2023-11-21T12:00:16;75.97;;;70.17;;
14187;SDS011;7175;51.978;5.330;2023-11-21T12:02:48;74.07;;;68.37;;
14187;SDS011;7175;51.978;5.330;2023-11-21T12:05:18;73.53;;;67.90;;
14187;SDS011;7175;51.978;5.330;2023-11-21T12:07:50;75.00;;;69.20;;
14187;SDS011;7175;51.978;5.330;2023-11-21T12:10:34;76.97;;;71.07;;
14187;SDS011;7175;51.978;5.330;2023-11-21T12:13:05;76.13;;;70.23;;
14187;SDS011;7175;51.978;5.330;2023-11-21T12:15:44;75.63;;;69.73;;
14187;SDS011;7175;51.978;5.330;2023-11-21T12:18:13;79.07;;;73.03;;
14187;SDS011;7175;51.978;5.330;2023-11-21T12:20:42;75.37;;;69.47;;
14187;SDS011;7175;51.978;5.330;2023-11-21T12:23:17;79.20;;;73.20;;
14187;SDS011;7175;51.978;5.330;2023-11-21T12:25:51;76.30;;;70.47;;
14187;SDS011;7175;51.978;5.330;2023-11-21T12:28:22;82.47;;;76.27;;
14187;SDS011;7175;51.978;5.330;2023-11-21T12:30:52;87.73;;;81.33;;
14187;SDS011;7175;51.978;5.330;2023-11-21T12:33:40;96.23;;;89.33;;
14187;SDS011;7175;51.978;5.330;2023-11-21T12:36:12;94.03;;;87.23;;
14187;SDS011;7175;51.978;5.330;2023-11-21T12:38:56;89.33;;;82.53;;
14187;SDS011;7175;51.978;5.330;2023-11-21T12:41:26;86.97;;;80.37;;
14187;SDS011;7175;51.978;5.330;2023-11-21T12:43:55;82.17;;;75.93;;
14187;SDS011;7175;51.978;5.330;2023-11-21T12:46:24;84.30;;;78.00;;
14187;SDS011;7175;51.978;5.330;2023-11-21T12:48:58;72.63;;;67.03;;
14187;SDS011;7175;51.978;5.330;2023-11-21T12:51:27;70.07;;;64.57;;
14187;SDS011;7175;51.978;5.330;2023-11-21T12:53:58;68.93;;;63.53;;
14187;SDS011;7175;51.978;5.330;2023-11-21T12:56:30;65.10;;;59.90;;
14187;SDS011;7175;51.978;5.330;2023-11-21T12:58:59;68.97;;;63.57;;
14187;SDS011;7175;51.978;5.330;2023-11-21T13:01:31;69.70;;;64.20;;
14187;SDS011;7175;51.978;5.330;2023-11-21T13:04:00;77.00;;;71.10;;
14187;SDS011;7175;51.978;5.330;2023-11-21T13:06:29;70.67;;;65.07;;
14187;SDS011;7175;51.978;5.330;2023-11-21T13:09:05;68.90;;;63.30;;
14187;SDS011;7175;51.978;5.330;2023-11-21T13:11:35;67.60;;;62.10;;
14187;SDS011;7175;51.978;5.330;2023-11-21T13:14:10;63.47;;;58.27;;
14187;SDS011;7175;51.978;5.330;2023-11-21T13:16:40;61.97;;;56.87;;
14187;SDS011;7175;51.978;5.330;2023-11-21T13:19:14;58.83;;;54.03;;
14187;SDS011;7175;51.978;5.330;2023-11-21T13:21:45;60.57;;;55.60;;
14187;SDS011;7175;51.978;5.330;2023-11-21T13:24:14;63.63;;;58.53;;
14187;SDS011;7175;51.978;5.330;2023-11-21T13:26:47;60.43;;;55.53;;
14187;SDS011;7175;51.978;5.330;2023-11-21T13:29:18;60.00;;;55.10;;
14187;SDS011;7175;51.978;5.330;2023-11-21T13:31:47;53.20;;;48.70;;
14187;SDS011;7175;51.978;5.330;2023-11-21T13:34:17;51.30;;;46.90;;
14187;SDS011;7175;51.978;5.330;2023-11-21T13:36:54;54.97;;;50.37;;
14187;SDS011;7175;51.978;5.330;2023-11-21T13:39:25;56.60;;;51.80;;
14187;SDS011;7175;51.978;5.330;2023-11-21T13:41:57;54.70;;;50.00;;
14187;SDS011;7175;51.978;5.330;2023-11-21T13:44:25;49.83;;;45.43;;
14187;SDS011;7175;51.978;5.330;2023-11-21T13:47:08;52.53;;;48.03;;
14187;SDS011;7175;51.978;5.330;2023-11-21T13:49:39;55.50;;;50.87;;
14187;SDS011;7175;51.978;5.330;2023-11-21T13:52:08;57.43;;;52.67;;
14187;SDS011;7175;51.978;5.330;2023-11-21T13:54:42;54.67;;;49.97;;
14187;SDS011;7175;51.978;5.330;2023-11-21T13:57:12;48.17;;;43.97;;
14187;SDS011;7175;51.978;5.330;2023-11-21T13:59:40;49.47;;;45.17;;
14187;SDS011;7175;51.978;5.330;2023-11-21T14:02:11;50.23;;;45.97;;
14187;SDS011;7175;51.978;5.330;2023-11-21T14:04:45;49.67;;;45.47;;
14187;SDS011;7175;51.978;5.330;2023-11-21T14:07:25;50.80;;;46.43;;
14187;SDS011;7175;51.978;5.330;2023-11-21T14:10:06;52.20;;;47.70;;
14187;SDS011;7175;51.978;5.330;2023-11-21T14:12:44;55.70;;;51.00;;
14187;SDS011;7175;51.978;5.330;2023-11-21T14:15:13;55.77;;;51.07;;
14187;SDS011;7175;51.978;5.330;2023-11-21T14:17:45;58.87;;;54.07;;
14187;SDS011;7175;51.978;5.330;2023-11-21T14:20:14;60.27;;;55.37;;
14187;SDS011;7175;51.978;5.330;2023-11-21T14:22:43;56.20;;;51.60;;
14187;SDS011;7175;51.978;5.330;2023-11-21T14:25:12;54.90;;;50.40;;
14187;SDS011;7175;51.978;5.330;2023-11-21T14:27:43;53.27;;;48.77;;
14187;SDS011;7175;51.978;5.330;2023-11-21T14:30:11;57.67;;;52.87;;
14187;SDS011;7175;51.978;5.330;2023-11-21T14:32:42;63.20;;;58.10;;
14187;SDS011;7175;51.978;5.330;2023-11-21T14:35:10;59.20;;;54.40;;
14187;SDS011;7175;51.978;5.330;2023-11-21T14:37:38;63.23;;;58.13;;